Time;durP1;ratioP1;P1;durP2;ratioP2;P2;SDS_P1;SDS_P2;PMS_P1;PMS_P2;Temp;Humidity;BMP_temperature;BMP_pressure;BME280_temperature;BME280_humidity;BME280_pressure;Samples;Min_cycle;Max_cycle;Signal;HPM_P1;HPM_P2
2021/08/30 00:01:53;;;;;;;7.30;5.60;;;307.60;2304.00;;;;;;5080392;28;20024;-61
2021/08/30 00:04:19;;;;;;;9.18;5.70;;;307.50;2304.00;;;;;;5081860;28;20039;-65
2021/08/30 00:06:44;;;;;;;5.90;4.72;;;307.50;2304.00;;;;;;5081803;28;20454;-61
2021/08/30 00:09:11;;;;;;;9.55;4.72;;;307.50;2304.00;;;;;;5083015;28;20032;-64
2021/08/30 00:11:38;;;;;;;8.75;4.82;;;307.50;2304.00;;;;;;5081681;28;20497;-67
2021/08/30 00:14:04;;;;;;;8.45;4.57;;;307.40;2304.00;;;;;;5084660;28;20474;-65
2021/08/30 00:16:30;;;;;;;6.00;4.10;;;307.40;2304.00;;;;;;5083821;28;20041;-62
2021/08/30 00:18:57;;;;;;;7.00;4.60;;;307.50;2304.00;;;;;;5080090;28;20103;-61
2021/08/30 00:21:23;;;;;;;8.93;5.82;;;307.40;2304.00;;;;;;5072327;28;20016;-61
2021/08/30 00:23:49;;;;;;;9.23;6.40;;;307.40;2304.00;;;;;;5072464;28;20103;-65
2021/08/30 00:26:15;;;;;;;12.75;8.98;;;307.40;2304.00;;;;;;5072245;28;20025;-60
2021/08/30 00:28:40;;;;;;;15.60;10.55;;;307.40;2304.00;;;;;;5072450;28;20040;-60
2021/08/30 00:31:06;;;;;;;14.32;10.35;;;307.30;2304.00;;;;;;5071962;28;20070;-60
2021/08/30 00:33:32;;;;;;;15.48;9.50;;;307.40;2304.00;;;;;;5072316;28;20016;-66
2021/08/30 00:35:58;;;;;;;25.83;12.07;;;307.30;2304.00;;;;;;5072047;28;20107;-60
2021/08/30 00:38:25;;;;;;;13.82;9.77;;;307.30;2304.00;;;;;;5072472;28;20428;-60
2021/08/30 00:40:51;;;;;;;11.77;8.88;;;307.30;2304.00;;;;;;5072105;28;20111;-66
2021/08/30 00:43:16;;;;;;;14.00;8.45;;;307.30;2304.00;;;;;;5072096;28;20119;-62
2021/08/30 00:45:42;;;;;;;11.35;7.03;;;307.20;2304.00;;;;;;5072171;28;20024;-60
2021/08/30 00:48:08;;;;;;;6.68;4.60;;;307.20;2304.00;;;;;;5072111;28;20536;-62
2021/08/30 00:50:34;;;;;;;6.88;4.75;;;307.30;2304.00;;;;;;5071323;28;20094;-60
2021/08/30 00:53:00;;;;;;;8.07;5.15;;;307.30;2304.00;;;;;;5072002;28;20161;-60
2021/08/30 00:55:26;;;;;;;6.72;4.85;;;307.30;2304.00;;;;;;5071928;28;20486;-61
2021/08/30 00:57:52;;;;;;;5.53;3.55;;;307.40;2304.00;;;;;;5071637;28;20495;-65
2021/08/30 01:00:17;;;;;;;9.60;4.35;;;307.40;2304.00;;;;;;5071465;28;20033;-60
2021/08/30 01:02:44;;;;;;;10.07;4.95;;;307.40;2304.00;;;;;;5071715;28;20100;-60
2021/08/30 01:05:12;;;;;;;11.23;7.10;;;307.30;2304.00;;;;;;5071466;28;20028;-60
2021/08/30 01:07:56;;;;;;;10.60;7.90;;;307.20;2304.00;;;;;;5071519;28;20043;-60
2021/08/30 01:10:28;;;;;;;14.82;9.25;;;282.50;2278.40;;;;;;5071481;28;20383;-61
2021/08/30 01:13:06;;;;;;;10.80;8.20;;;282.30;2278.40;;;;;;5071319;28;20020;-61
2021/08/30 01:15:43;;;;;;;12.15;7.90;;;282.20;2278.40;;;;;;5071507;28;20028;-61
2021/08/30 01:18:30;;;;;;;9.73;6.82;;;282.20;2278.40;;;;;;5071328;28;20021;-61
2021/08/30 01:21:22;;;;;;;13.48;6.85;;;282.20;2278.40;;;;;;5070444;28;20032;-61
2021/08/30 01:24:07;;;;;;;5.60;4.40;;;282.20;2278.40;;;;;;5071157;28;20491;-61
2021/08/30 01:26:43;;;;;;;7.07;5.05;;;282.10;2278.40;;;;;;5070427;28;20601;-61
2021/08/30 01:29:17;;;;;;;8.63;4.43;;;282.20;2278.40;;;;;;5071174;28;20032;-62
2021/08/30 01:32:01;;;;;;;7.57;4.72;;;282.20;2278.40;;;;;;5071046;28;20029;-62
2021/08/30 01:34:28;;;;;;;7.28;4.28;;;282.20;2278.40;;;;;;5070944;28;20024;-62
2021/08/30 01:36:54;;;;;;;6.10;4.10;;;282.30;2278.40;;;;;;5070473;28;20064;-61
2021/08/30 01:39:20;;;;;;;10.60;4.90;;;282.30;2278.40;;;;;;5071108;28;20029;-62
2021/08/30 01:41:48;;;;;;;10.05;6.25;;;282.20;2278.40;;;;;;5070691;28;20028;-61
2021/08/30 01:44:15;;;;;;;9.25;5.80;;;282.10;2278.40;;;;;;5070872;28;20024;-61
2021/08/30 01:46:41;;;;;;;9.07;6.40;;;282.00;2278.40;;;;;;5070802;28;20102;-61
2021/08/30 01:49:09;;;;;;;10.63;6.40;;;281.90;2278.40;;;;;;5070777;28;20024;-61
2021/08/30 01:51:36;;;;;;;8.40;5.93;;;281.90;2278.40;;;;;;5070271;28;20049;-60
2021/08/30 01:54:02;;;;;;;9.65;5.88;;;282.00;2278.40;;;;;;5070735;28;20477;-61
2021/08/30 01:56:30;;;;;;;7.47;5.25;;;282.00;2278.40;;;;;;5070497;28;20032;-61
2021/08/30 02:01:41;;;;;;;9.45;5.53;;;282.00;2278.40;;;;;;5070964;28;20531;-61
2021/08/30 02:04:06;;;;;;;7.75;5.07;;;282.00;2278.40;;;;;;5070320;28;20040;-61
2021/08/30 02:06:35;;;;;;;7.10;4.97;;;282.00;2278.40;;;;;;5070294;28;20033;-60
2021/08/30 02:09:03;;;;;;;10.38;5.30;;;282.00;2278.40;;;;;;5070740;28;20040;-63
2021/08/30 02:11:35;;;;;;;7.28;4.65;;;281.90;2278.40;;;;;;5070440;28;20035;-61
2021/08/30 02:14:02;;;;;;;8.25;4.93;;;282.00;2278.40;;;;;;5070440;28;20029;-61
2021/08/30 02:16:28;;;;;;;6.25;4.00;;;281.90;2278.40;;;;;;5070347;28;20133;-60
2021/08/30 02:19:36;;;;;;;6.60;3.90;;;281.90;2278.40;;;;;;5070028;28;20444;-61
2021/08/30 02:22:12;;;;;;;8.00;3.55;;;281.90;2278.40;;;;;;5069087;28;20096;-60
2021/08/30 02:24:50;;;;;;;6.75;3.85;;;281.90;2278.40;;;;;;5070334;28;20063;-61
2021/08/30 02:28:02;;;;;;;7.50;4.20;;;281.90;2278.40;;;;;;5069969;28;20034;-61
2021/08/30 02:30:31;;;;;;;7.20;3.97;;;282.00;2278.40;;;;;;4988711;28;20043;-60
2021/08/30 02:33:02;;;;;;;5.22;3.63;;;282.00;2278.40;;;;;;4988566;28;20046;-61
2021/08/30 02:35:35;;;;;;;5.40;3.47;;;282.00;2278.40;;;;;;4988331;28;20054;-62
2021/08/30 02:38:01;;;;;;;7.85;5.70;;;282.00;2278.40;;;;;;4988552;28;20039;-62
2021/08/30 02:40:28;;;;;;;6.03;3.92;;;282.00;2278.40;;;;;;4988557;28;20536;-60
2021/08/30 02:42:57;;;;;;;6.20;4.50;;;282.00;2278.40;;;;;;4988528;28;20038;-61
2021/08/30 02:45:24;;;;;;;8.35;4.60;;;281.90;2278.40;;;;;;4988575;28;20038;-60
2021/08/30 02:47:51;;;;;;;8.95;6.00;;;281.90;2278.40;;;;;;4988795;28;20078;-60
2021/08/30 02:50:18;;;;;;;8.75;6.32;;;281.80;2278.40;;;;;;4988237;28;20109;-61
2021/08/30 02:52:46;;;;;;;9.15;5.65;;;281.80;2278.40;;;;;;4988558;28;20034;-61
2021/08/30 02:55:12;;;;;;;9.20;5.40;;;281.80;2278.40;;;;;;4988663;28;20029;-61
2021/08/30 02:57:39;;;;;;;7.53;5.70;;;281.80;2278.40;;;;;;4988356;28;20042;-61
2021/08/30 03:00:06;;;;;;;7.22;5.70;;;281.80;2278.40;;;;;;4988367;28;20089;-61
2021/08/30 03:02:33;;;;;;;8.23;5.25;;;281.70;2278.40;;;;;;4988815;28;20508;-60
2021/08/30 03:05:00;;;;;;;9.43;6.80;;;281.70;2278.40;;;;;;5048023;28;20060;-60
2021/08/30 03:07:28;;;;;;;8.75;4.88;;;281.70;2278.40;;;;;;5069607;28;20039;-61
2021/08/30 03:09:56;;;;;;;7.30;4.95;;;281.80;2278.40;;;;;;5069419;28;20036;-60
2021/08/30 03:12:22;;;;;;;5.63;4.25;;;281.80;2278.40;;;;;;5069874;28;20025;-61
2021/08/30 03:14:49;;;;;;;8.43;4.28;;;281.80;2278.40;;;;;;5069385;28;20115;-60
2021/08/30 03:17:16;;;;;;;8.30;5.07;;;281.70;2278.40;;;;;;5069627;28;20081;-60
2021/08/30 03:19:45;;;;;;;8.35;5.22;;;281.70;2278.40;;;;;;5069599;28;20028;-60
2021/08/30 03:22:12;;;;;;;7.57;4.55;;;281.70;2278.40;;;;;;5070060;28;20036;-60
2021/08/30 03:24:41;;;;;;;7.93;4.97;;;256.90;2252.80;;;;;;5069787;28;20032;-60
2021/08/30 03:27:11;;;;;;;7.43;5.03;;;256.90;2252.80;;;;;;5069569;28;20364;-64
2021/08/30 03:29:41;;;;;;;7.38;4.57;;;256.90;2252.80;;;;;;5069410;28;20024;-60
2021/08/30 03:32:10;;;;;;;9.13;5.78;;;256.70;2252.80;;;;;;5069343;28;20035;-59
2021/08/30 03:34:37;;;;;;;10.48;5.25;;;256.70;2252.80;;;;;;5069309;28;20060;-60
2021/08/30 03:37:04;;;;;;;6.95;5.18;;;256.80;2252.80;;;;;;5069238;28;20027;-60
2021/08/30 03:39:30;;;;;;;7.95;4.82;;;256.70;2252.80;;;;;;5069678;28;20028;-60
2021/08/30 03:41:57;;;;;;;7.25;4.30;;;256.70;2252.80;;;;;;5067955;28;20048;-59
2021/08/30 03:44:25;;;;;;;6.30;4.85;;;256.80;2252.80;;;;;;5069660;28;20056;-61
2021/08/30 03:46:54;;;;;;;5.88;4.35;;;256.90;2252.80;;;;;;5069688;28;20027;-60
2021/08/30 03:49:23;;;;;;;6.32;4.28;;;256.90;2252.80;;;;;;5069434;28;20024;-60
2021/08/30 03:51:49;;;;;;;6.03;4.18;;;256.90;2252.80;;;;;;5072527;28;20029;-61
2021/08/30 03:54:15;;;;;;;7.00;4.60;;;281.60;2278.40;;;;;;5072884;28;20478;-61
2021/08/30 03:56:42;;;;;;;6.75;4.28;;;281.60;2278.40;;;;;;5072947;28;20033;-60
2021/08/30 03:59:10;;;;;;;7.90;4.47;;;256.90;2252.80;;;;;;5072862;28;20490;-60
2021/08/30 04:01:40;;;;;;;7.70;4.57;;;256.90;2252.80;;;;;;5072770;28;20390;-60
2021/08/30 04:04:08;;;;;;;8.70;5.70;;;256.80;2252.80;;;;;;5072638;28;20060;-60
2021/08/30 04:06:34;;;;;;;17.40;5.78;;;256.80;2252.80;;;;;;5072286;28;20032;-63
2021/08/30 04:09:01;;;;;;;10.65;5.07;;;256.70;2252.80;;;;;;5072589;28;20039;-60
2021/08/30 04:11:27;;;;;;;11.35;5.78;;;256.70;2252.80;;;;;;5072453;28;20029;-61
2021/08/30 04:13:54;;;;;;;7.57;5.30;;;256.80;2252.80;;;;;;5072377;28;20048;-61
2021/08/30 04:16:19;;;;;;;6.80;4.68;;;256.90;2252.80;;;;;;5072644;28;20035;-65
2021/08/30 04:18:45;;;;;;;7.50;5.18;;;256.90;2252.80;;;;;;5072324;28;20025;-60
2021/08/30 04:21:11;;;;;;;9.00;4.85;;;281.70;2278.40;;;;;;5072732;28;20035;-61
2021/08/30 04:23:37;;;;;;;7.75;4.50;;;281.80;2278.40;;;;;;5072327;28;20035;-60
2021/08/30 04:26:03;;;;;;;5.75;4.15;;;281.90;2278.40;;;;;;5072250;28;20030;-61
2021/08/30 04:28:28;;;;;;;6.70;4.30;;;282.00;2278.40;;;;;;5072559;28;20031;-60
2021/08/30 04:30:54;;;;;;;6.40;4.30;;;282.20;2278.40;;;;;;5071985;28;20479;-61
2021/08/30 04:33:22;;;;;;;6.28;4.13;;;282.30;2278.40;;;;;;5072542;28;20021;-60
2021/08/30 04:35:48;;;;;;;5.30;4.10;;;282.40;2278.40;;;;;;5071998;28;20500;-60
2021/08/30 04:38:14;;;;;;;7.55;5.15;;;282.50;2278.40;;;;;;5072216;28;20024;-61
2021/08/30 04:40:40;;;;;;;9.77;5.50;;;307.20;2304.00;;;;;;5072235;28;20497;-60
2021/08/30 04:43:09;;;;;;;8.90;6.65;;;307.20;2304.00;;;;;;5071857;28;20078;-60
2021/08/30 04:45:36;;;;;;;6.40;4.88;;;307.30;2304.00;;;;;;5071817;28;20040;-61
2021/08/30 04:48:02;;;;;;;7.68;5.10;;;307.30;2304.00;;;;;;5071980;28;20038;-61
2021/08/30 04:50:28;;;;;;;6.53;4.80;;;307.30;2304.00;;;;;;5071728;28;20032;-62
2021/08/30 04:52:53;;;;;;;9.32;6.13;;;307.50;2304.00;;;;;;5071895;28;20379;-67
2021/08/30 04:55:19;;;;;;;10.30;5.50;;;307.80;2304.00;;;;;;5071764;28;20035;-61
2021/08/30 04:57:45;;;;;;;7.93;5.03;;;307.80;2304.00;;;;;;5071577;28;20040;-63
2021/08/30 05:00:12;;;;;;;6.15;3.72;;;308.10;2304.00;;;;;;5071962;28;20489;-61
2021/08/30 05:02:38;;;;;;;6.28;4.30;;;332.90;2329.60;;;;;;5070388;28;20075;-60
2021/08/30 05:05:04;;;;;;;10.07;3.90;;;333.20;2329.60;;;;;;5071484;28;20537;-61
2021/08/30 05:07:30;;;;;;;5.78;3.42;;;358.40;2329.60;;;;;;5071622;28;20027;-67
2021/08/30 05:09:56;;;;;;;6.45;4.10;;;358.80;2329.60;;;;;;5071553;28;20119;-61
2021/08/30 05:12:25;;;;;;;6.53;4.22;;;384.60;2329.60;;;;;;5071753;28;20546;-61
2021/08/30 05:14:51;;;;;;;6.07;3.60;;;410.30;2355.20;;;;;;5071397;28;20035;-63
2021/08/30 05:17:17;;;;;;;4.43;3.15;;;435.30;2355.20;;;;;;5071128;28;20024;-64
2021/08/30 05:19:42;;;;;;;9.43;3.42;;;410.20;2355.20;;;;;;5071321;28;20455;-64
2021/08/30 05:22:10;;;;;;;5.40;3.25;;;384.90;2329.60;;;;;;5071071;28;20021;-64
2021/08/30 05:24:36;;;;;;;6.45;3.63;;;384.50;2329.60;;;;;;5071173;28;20368;-65
2021/08/30 05:27:02;;;;;;;10.05;5.68;;;384.10;2329.60;;;;;;5071297;28;20025;-64
2021/08/30 05:29:27;;;;;;;10.90;5.90;;;384.00;2329.60;;;;;;5070796;28;20037;-64
2021/08/30 05:31:53;;;;;;;9.10;6.60;;;384.10;2329.60;;;;;;5071847;28;20035;-64
2021/08/30 05:34:19;;;;;;;8.80;7.18;;;359.20;2329.60;;;;;;5091383;28;20390;-64
2021/08/30 05:36:44;;;;;;;10.82;6.90;;;384.00;2329.60;;;;;;5090955;28;20087;-65
2021/08/30 05:39:10;;;;;;;12.82;6.50;;;384.30;2329.60;;;;;;5091399;28;20099;-64
2021/08/30 05:41:36;;;;;;;11.05;6.63;;;384.60;2329.60;;;;;;5091042;28;20027;-64
2021/08/30 05:44:01;;;;;;;10.88;8.23;;;384.60;2329.60;;;;;;5091265;28;20039;-65
2021/08/30 05:46:27;;;;;;;14.70;6.10;;;410.20;2355.20;;;;;;5085380;28;20021;-64
2021/08/30 05:48:53;;;;;;;9.35;5.47;;;435.50;2355.20;;;;;;5072570;28;20037;-64
2021/08/30 05:51:18;;;;;;;13.27;5.32;;;512.00;2380.80;;;;;;5091084;28;20035;-65
2021/08/30 05:53:44;;;;;;;7.03;4.70;;;589.10;2432.00;;;;;;5090854;28;20020;-65
2021/08/30 05:56:10;;;;;;;8.45;5.10;;;665.70;2227.20;;;;;;5091168;28;20028;-64
2021/08/30 05:58:36;;;;;;;6.32;5.13;;;691.90;1945.60;;;;;;5090634;28;20414;-64
2021/08/30 06:01:03;;;;;;;5.82;5.03;;;742.60;1792.00;;;;;;5090941;28;20099;-65
2021/08/30 06:03:29;;;;;;;10.15;6.10;;;768.10;1664.00;;;;;;5090731;28;20073;-65
2021/08/30 06:05:55;;;;;;;17.35;9.55;;;742.90;1638.40;;;;;;5090410;28;20060;-66
2021/08/30 06:08:21;;;;;;;5.65;3.90;;;742.70;1638.40;;;;;;5090921;28;20047;-65
2021/08/30 06:10:47;;;;;;;5.55;4.82;;;742.70;1638.40;;;;;;5090353;28;20090;-66
2021/08/30 06:13:12;;;;;;;4.72;4.32;;;742.60;1612.80;;;;;;5090516;28;20035;-66
2021/08/30 06:15:41;;;;;;;5.32;4.82;;;742.90;1587.20;;;;;;5090360;28;20050;-67
2021/08/30 06:18:08;;;;;;;5.68;5.28;;;743.00;1587.20;;;;;;5090357;28;20032;-66
2021/08/30 06:20:33;;;;;;;5.90;5.40;;;768.90;1484.80;;;;;;5090185;28;20024;-66
2021/08/30 06:23:02;;;;;;;5.88;5.47;;;819.80;1382.40;;;;;;5090626;28;20028;-66
2021/08/30 06:25:28;;;;;;;7.85;7.10;;;845.20;1356.80;;;;;;5090148;28;20032;-66
2021/08/30 06:27:53;;;;;;;6.43;5.88;;;845.70;1331.20;;;;;;5089035;28;20039;-66
2021/08/30 06:30:19;;;;;;;8.38;6.97;;;845.70;1305.60;;;;;;5090362;28;20039;-66
2021/08/30 06:32:45;;;;;;;7.85;7.35;;;870.80;1254.40;;;;;;5090128;28;20111;-66
2021/08/30 06:35:11;;;;;;;7.82;7.35;;;896.30;1203.20;;;;;;5090223;28;20039;-65
2021/08/30 06:37:38;;;;;;;8.20;7.65;;;896.20;1203.20;;;;;;5090280;28;20028;-65
2021/08/30 06:40:05;;;;;;;9.02;8.52;;;922.10;1126.40;;;;;;5090274;28;20013;-67
2021/08/30 06:42:31;;;;;;;9.40;8.80;;;922.20;1126.40;;;;;;5090279;28;20153;-65
2021/08/30 06:44:57;;;;;;;9.80;9.20;;;947.20;1075.20;;;;;;5089987;28;20386;-67
2021/08/30 06:47:23;;;;;;;8.68;8.18;;;947.80;1075.20;;;;;;5083222;28;20024;-67
2021/08/30 06:49:49;;;;;;;8.55;8.05;;;948.10;1049.60;;;;;;5078434;28;20028;-64
2021/08/30 06:52:15;;;;;;;8.50;8.02;;;947.80;1049.60;;;;;;5078391;28;20021;-65
2021/08/30 06:54:41;;;;;;;8.40;7.90;;;947.90;1049.60;;;;;;5080346;28;20023;-64
2021/08/30 06:57:06;;;;;;;9.40;8.80;;;947.80;1049.60;;;;;;5079670;28;20051;-66
2021/08/30 06:59:33;;;;;;;9.23;8.63;;;947.90;1049.60;;;;;;5078601;28;20107;-64
2021/08/30 07:01:59;;;;;;;8.70;8.20;;;947.50;1075.20;;;;;;5079387;28;20028;-63
2021/08/30 07:04:24;;;;;;;10.80;9.95;;;947.90;1049.60;;;;;;5080007;28;20017;-66
2021/08/30 07:06:50;;;;;;;8.98;8.43;;;972.80;1049.60;;;;;;5078129;28;20158;-65
2021/08/30 07:09:16;;;;;;;10.63;10.02;;;973.10;1049.60;;;;;;5079628;28;20486;-64
2021/08/30 07:11:42;;;;;;;8.60;7.90;;;973.60;1024.00;;;;;;5079791;28;20449;-65
2021/08/30 07:14:08;;;;;;;8.25;7.75;;;973.70;998.40;;;;;;5078033;28;20100;-65
2021/08/30 07:16:34;;;;;;;9.90;9.10;;;998.80;998.40;;;;;;5079984;28;20028;-65
2021/08/30 07:19:00;;;;;;;9.27;8.77;;;998.50;998.40;;;;;;5079262;28;20019;-65
2021/08/30 07:21:28;;;;;;;9.88;9.27;;;973.60;1024.00;;;;;;5078152;28;20012;-66
2021/08/30 07:23:55;;;;;;;8.45;7.85;;;998.80;998.40;;;;;;5078227;28;20032;-66
2021/08/30 07:26:20;;;;;;;9.02;8.50;;;1024.30;947.20;;;;;;5081747;28;20420;-67
2021/08/30 07:28:46;;;;;;;8.32;7.72;;;999.20;972.80;;;;;;5083737;28;20055;-67
2021/08/30 07:31:12;;;;;;;8.18;7.68;;;999.20;998.40;;;;;;5081886;28;20028;-65
2021/08/30 07:33:38;;;;;;;8.65;8.15;;;1024.90;921.60;;;;;;5082993;28;20012;-65
2021/08/30 07:36:04;;;;;;;7.95;7.45;;;1024.60;947.20;;;;;;5073802;28;20036;-66
2021/08/30 07:38:30;;;;;;;7.43;6.95;;;1024.10;947.20;;;;;;5082962;28;20074;-66
2021/08/30 07:40:56;;;;;;;8.27;7.78;;;1024.20;947.20;;;;;;5092063;28;20059;-65
2021/08/30 07:43:21;;;;;;;8.30;7.80;;;1049.60;947.20;;;;;;5093494;28;20027;-67
2021/08/30 07:45:47;;;;;;;8.32;7.72;;;1024.60;947.20;;;;;;5093180;28;20470;-65
2021/08/30 07:48:13;;;;;;;7.57;7.07;;;1049.90;947.20;;;;;;5093635;28;20020;-65
2021/08/30 07:50:38;;;;;;;7.13;6.72;;;1049.90;947.20;;;;;;5093154;28;20122;-65
2021/08/30 07:53:04;;;;;;;7.43;6.80;;;1075.20;896.00;;;;;;5093416;28;20157;-66
2021/08/30 07:55:34;;;;;;;6.35;5.95;;;999.00;972.80;;;;;;5093610;28;20032;-64
2021/08/30 07:58:00;;;;;;;7.22;6.78;;;;;;;;;;5092998;28;20119;-68
2021/08/30 08:00:26;;;;;;;6.72;6.07;;;1049.80;947.20;;;;;;5092743;28;20491;-66
2021/08/30 08:02:52;;;;;;;6.55;6.07;;;1049.70;921.60;;;;;;5093036;28;20052;-66
2021/08/30 08:05:19;;;;;;;7.28;6.72;;;999.10;947.20;;;;;;5092779;28;20409;-67
2021/08/30 08:07:45;;;;;;;4.10;3.80;;;973.20;972.80;;;;;;5092584;28;20028;-67
2021/08/30 08:10:11;;;;;;;7.10;6.60;;;947.60;998.40;;;;;;5092798;28;20089;-65
2021/08/30 08:12:37;;;;;;;7.35;6.85;;;998.60;998.40;;;;;;5092569;28;20032;-66
2021/08/30 08:15:04;;;;;;;6.93;6.43;;;999.10;972.80;;;;;;5092920;28;20047;-66
2021/08/30 08:17:30;;;;;;;6.78;6.15;;;1050.20;921.60;;;;;;5092878;28;20032;-66
2021/08/30 08:19:56;;;;;;;6.38;5.88;;;973.00;972.80;;;;;;5092470;28;20355;-65
2021/08/30 08:22:21;;;;;;;4.35;3.95;;;998.40;972.80;;;;;;5092593;28;20404;-66
2021/08/30 08:24:47;;;;;;;4.55;4.15;;;973.60;947.20;;;;;;5092650;28;20035;-65
2021/08/30 08:27:13;;;;;;;5.30;4.90;;;896.00;1049.60;;;;;;5092652;28;20356;-65
2021/08/30 08:29:39;;;;;;;4.15;3.75;;;871.00;1100.80;;;;;;5092645;28;20024;-65
2021/08/30 08:32:05;;;;;;;5.10;4.70;;;845.40;1152.00;;;;;;5092503;28;20036;-65
2021/08/30 08:34:31;;;;;;;5.82;5.43;;;896.10;1049.60;;;;;;5092789;28;20020;-65
2021/08/30 08:37:02;;;;;;;5.90;5.45;;;922.30;1049.60;;;;;;5091851;28;20491;-66
2021/08/30 08:39:28;;;;;;;5.60;5.10;;;896.90;1024.00;;;;;;5092139;28;20032;-65
2021/08/30 08:41:53;;;;;;;6.15;5.57;;;922.00;1049.60;;;;;;5090807;28;20039;-64
2021/08/30 08:44:19;;;;;;;7.25;4.85;;;896.90;1049.60;;;;;;5092488;28;20103;-64
2021/08/30 08:46:45;;;;;;;5.80;4.63;;;896.90;1024.00;;;;;;5092182;28;20017;-65
2021/08/30 08:49:11;;;;;;;4.25;3.85;;;845.60;1152.00;;;;;;5092321;28;20564;-63
2021/08/30 08:51:36;;;;;;;5.18;3.05;;;819.80;1152.00;;;;;;5091893;28;20081;-62
2021/08/30 08:54:06;;;;;;;4.63;3.90;;;794.20;1177.60;;;;;;5092328;28;20020;-63
2021/08/30 08:56:32;;;;;;;4.15;3.78;;;793.70;1228.80;;;;;;5092293;28;20084;-62
2021/08/30 08:58:58;;;;;;;4.55;3.25;;;768.60;1228.80;;;;;;5091944;28;20419;-63
2021/08/30 09:01:26;;;;;;;5.88;3.47;;;743.10;1280.00;;;;;;5072641;28;20036;-64
2021/08/30 09:03:55;;;;;;;4.28;3.53;;;717.70;1280.00;;;;;;5071599;28;20024;-64
2021/08/30 09:06:38;;;;;;;3.85;3.20;;;717.30;1331.20;;;;;;5071542;28;20498;-64
2021/08/30 09:09:16;;;;;;;4.32;3.65;;;717.40;1305.60;;;;;;5071339;28;20033;-64
2021/08/30 09:11:52;;;;;;;4.30;3.63;;;717.20;1280.00;;;;;;5071455;28;20040;-63
2021/08/30 09:14:20;;;;;;;4.47;4.07;;;717.10;1305.60;;;;;;5071654;28;20029;-63
2021/08/30 09:16:47;;;;;;;5.28;3.20;;;717.20;1331.20;;;;;;5071177;28;20020;-64
2021/08/30 09:19:16;;;;;;;5.38;3.63;;;716.90;1305.60;;;;;;5071638;28;20092;-64
2021/08/30 09:21:48;;;;;;;3.83;3.35;;;716.80;1382.40;;;;;;5071379;28;20047;-64
2021/08/30 09:24:15;;;;;;;4.68;4.18;;;692.00;1356.80;;;;;;5071664;28;20025;-64
2021/08/30 09:26:44;;;;;;;4.40;3.97;;;716.80;1382.40;;;;;;5071377;28;20390;-64
2021/08/30 09:29:19;;;;;;;4.45;3.78;;;692.10;1331.20;;;;;;5071347;28;20027;-64
2021/08/30 09:32:01;;;;;;;4.00;3.53;;;716.80;1382.40;;;;;;5070963;28;20039;-64
2021/08/30 09:34:39;;;;;;;4.70;3.40;;;716.90;1331.20;;;;;;5071001;28;20524;-64
2021/08/30 09:37:12;;;;;;;4.50;4.10;;;692.10;1331.20;;;;;;5070624;28;20448;-64
2021/08/30 09:39:47;;;;;;;5.32;4.00;;;691.70;1356.80;;;;;;5070948;28;20105;-65
2021/08/30 09:42:13;;;;;;;4.75;4.00;;;691.70;1356.80;;;;;;5071195;28;20043;-64
2021/08/30 09:44:39;;;;;;;6.15;4.32;;;691.70;1382.40;;;;;;5071133;28;20024;-64
2021/08/30 09:47:13;;;;;;;4.55;3.63;;;691.40;1382.40;;;;;;5069310;28;20032;-65
2021/08/30 09:49:40;;;;;;;4.30;3.63;;;691.30;1433.60;;;;;;5070250;28;20103;-64
2021/08/30 09:52:06;;;;;;;5.82;4.10;;;691.60;1433.60;;;;;;5070738;28;20109;-64
2021/08/30 09:54:32;;;;;;;4.07;3.22;;;691.60;1382.40;;;;;;5070964;28;20024;-63
2021/08/30 09:56:58;;;;;;;4.60;3.63;;;691.60;1382.40;;;;;;5070710;28;20136;-64
2021/08/30 09:59:25;;;;;;;4.40;3.30;;;666.50;1356.80;;;;;;5070709;28;20024;-64
2021/08/30 10:01:54;;;;;;;5.15;3.45;;;666.20;1356.80;;;;;;5071042;28;20021;-64
2021/08/30 10:04:21;;;;;;;4.80;3.35;;;666.50;1408.00;;;;;;5071203;28;20025;-64
2021/08/30 10:06:51;;;;;;;3.20;2.90;;;666.00;1408.00;;;;;;5070743;28;20032;-64
2021/08/30 10:09:21;;;;;;;4.47;2.97;;;666.00;1408.00;;;;;;5071229;28;20120;-64
2021/08/30 10:11:50;;;;;;;3.50;3.00;;;640.70;1408.00;;;;;;5071747;28;20063;-65
2021/08/30 10:14:36;;;;;;;4.03;2.88;;;640.00;1433.60;;;;;;5073905;28;20023;-65
2021/08/30 10:17:04;;;;;;;3.60;3.03;;;640.70;1459.20;;;;;;5070635;28;20037;-64
2021/08/30 10:19:32;;;;;;;4.00;2.90;;;640.20;1382.40;;;;;;5070660;28;20029;-64
2021/08/30 10:22:00;;;;;;;3.42;2.85;;;640.30;1433.60;;;;;;5070435;28;20049;-64
2021/08/30 10:24:37;;;;;;;5.32;2.88;;;640.60;1484.80;;;;;;5070674;28;20077;-64
2021/08/30 10:27:03;;;;;;;4.05;3.15;;;640.70;1433.60;;;;;;5070619;28;20104;-63
2021/08/30 10:29:34;;;;;;;3.75;3.13;;;640.80;1484.80;;;;;;5069959;28;20024;-63
2021/08/30 10:32:00;;;;;;;4.32;3.30;;;640.30;1459.20;;;;;;5072497;28;20040;-63
2021/08/30 10:34:36;;;;;;;3.33;2.72;;;640.20;1510.40;;;;;;5074186;28;20016;-65
2021/08/30 10:37:03;;;;;;;3.20;2.50;;;640.40;1510.40;;;;;;5071610;28;20166;-65
2021/08/30 10:39:40;;;;;;;3.40;2.75;;;640.40;1459.20;;;;;;5071462;28;20494;-64
2021/08/30 10:42:10;;;;;;;3.75;3.05;;;640.50;1484.80;;;;;;5070360;28;20122;-65
2021/08/30 10:45:03;;;;;;;4.00;3.40;;;640.30;1484.80;;;;;;5070338;28;20020;-64
2021/08/30 10:47:37;;;;;;;4.50;3.13;;;640.30;1484.80;;;;;;5070026;28;20025;-65
2021/08/30 10:50:18;;;;;;;2.92;2.45;;;615.20;1484.80;;;;;;5070373;28;20029;-64
2021/08/30 10:52:43;;;;;;;3.03;2.70;;;615.10;1484.80;;;;;;5070873;28;20036;-64
2021/08/30 10:55:18;;;;;;;3.65;2.80;;;640.10;1484.80;;;;;;5070478;28;20024;-64
2021/08/30 10:57:50;;;;;;;3.53;2.92;;;640.50;1433.60;;;;;;5070762;28;20053;-64
2021/08/30 11:00:17;;;;;;;3.38;2.67;;;640.50;1484.80;;;;;;5073049;28;20121;-65
2021/08/30 11:02:47;;;;;;;3.17;2.60;;;640.50;1433.60;;;;;;5074536;28;20031;-66
2021/08/30 11:05:13;;;;;;;3.35;2.72;;;615.30;1433.60;;;;;;5074389;28;20076;-64
2021/08/30 11:07:39;;;;;;;3.70;2.80;;;614.90;1484.80;;;;;;5074336;28;20491;-64
2021/08/30 11:10:07;;;;;;;4.65;2.60;;;614.60;1561.60;;;;;;5073915;28;20040;-63
2021/08/30 11:12:34;;;;;;;3.95;2.83;;;614.80;1536.00;;;;;;5074385;28;20052;-64
2021/08/30 11:15:00;;;;;;;3.00;2.50;;;614.70;1484.80;;;;;;5074493;28;20086;-64
2021/08/30 11:17:28;;;;;;;4.65;2.70;;;614.50;1510.40;;;;;;5074053;28;20033;-64
2021/08/30 11:19:55;;;;;;;3.38;2.80;;;614.50;1561.60;;;;;;5074084;28;20066;-64
2021/08/30 11:22:21;;;;;;;3.17;2.67;;;614.70;1536.00;;;;;;5073685;28;20021;-64
2021/08/30 11:24:46;;;;;;;3.15;2.53;;;614.70;1459.20;;;;;;5073655;28;20031;-63
2021/08/30 11:27:16;;;;;;;2.80;2.28;;;614.60;1484.80;;;;;;5074150;28;20371;-63
2021/08/30 11:29:46;;;;;;;3.10;2.50;;;614.70;1536.00;;;;;;5074544;28;20383;-64
2021/08/30 11:32:14;;;;;;;3.08;2.25;;;614.70;1510.40;;;;;;5074508;28;20390;-64
2021/08/30 11:34:42;;;;;;;3.28;2.58;;;615.00;1484.80;;;;;;5074622;28;20021;-63
2021/08/30 11:37:10;;;;;;;4.65;2.70;;;615.20;1510.40;;;;;;5073892;28;20040;-63
2021/08/30 11:39:39;;;;;;;3.33;2.63;;;615.20;1510.40;;;;;;5073478;28;20021;-63
2021/08/30 11:42:08;;;;;;;3.70;2.88;;;615.30;1484.80;;;;;;5073279;28;20032;-64
2021/08/30 11:44:36;;;;;;;3.03;2.35;;;640.00;1561.60;;;;;;5072945;28;20029;-64
2021/08/30 11:47:04;;;;;;;3.35;2.40;;;640.10;1484.80;;;;;;5073214;28;20027;-63
2021/08/30 11:49:48;;;;;;;3.08;2.47;;;615.30;1484.80;;;;;;5073278;28;20016;-64
2021/08/30 11:52:16;;;;;;;3.35;2.50;;;615.20;1536.00;;;;;;5072939;28;20380;-64
2021/08/30 11:54:56;;;;;;;3.17;2.47;;;615.00;1433.60;;;;;;5073408;28;20033;-63
2021/08/30 11:57:22;;;;;;;3.28;2.35;;;614.80;1484.80;;;;;;5072943;28;20041;-63
2021/08/30 11:59:50;;;;;;;4.05;2.30;;;615.10;1459.20;;;;;;5073182;28;20411;-65
2021/08/30 12:02:17;;;;;;;6.13;2.90;;;615.30;1484.80;;;;;;5072785;28;20090;-65
2021/08/30 12:04:43;;;;;;;3.92;3.10;;;615.00;1433.60;;;;;;5072771;28;20111;-63
2021/08/30 12:07:15;;;;;;;3.50;2.50;;;614.80;1459.20;;;;;;5072753;28;20555;-64
2021/08/30 12:09:49;;;;;;;4.07;2.97;;;615.00;1510.40;;;;;;5072819;28;20489;-63
2021/08/30 12:12:22;;;;;;;3.58;2.22;;;614.80;1459.20;;;;;;5072151;28;20036;-64
2021/08/30 12:15:14;;;;;;;3.17;2.22;;;615.00;1459.20;;;;;;5072382;28;20085;-64
2021/08/30 12:17:44;;;;;;;2.90;2.13;;;614.90;1484.80;;;;;;5072539;28;20032;-63
2021/08/30 12:20:15;;;;;;;2.92;2.03;;;614.70;1433.60;;;;;;5072877;28;20025;-63
2021/08/30 12:22:47;;;;;;;3.78;2.40;;;614.60;1510.40;;;;;;5072419;28;20088;-62
2021/08/30 12:25:30;;;;;;;2.88;2.30;;;614.60;1561.60;;;;;;5072666;28;20024;-63